Time;durP1;ratioP1;P1;durP2;ratioP2;P2;SDS_P1;SDS_P2;PMS_P1;PMS_P2;Temp;Humidity;BMP_temperature;BMP_pressure;BME280_temperature;BME280_humidity;BME280_pressure;Samples;Min_cycle;Max_cycle;Signal;HPM_P1;HPM_P2
2022/05/03 00:00:09;;;;;;;9.20;6.45;;;16.50;68.40;;;;;;5099757;27;20053;-59
2022/05/03 00:02:45;;;;;;;9.90;6.45;;;16.50;68.20;;;;;;5116660;27;20043;-56
2022/05/03 00:05:42;;;;;;;8.40;5.85;;;16.50;67.90;;;;;;5135120;27;20027;-56
2022/05/03 00:08:28;;;;;;;9.07;6.43;;;16.50;67.90;;;;;;5135270;27;20043;-57
2022/05/03 00:11:25;;;;;;;7.47;6.68;;;16.50;67.90;;;;;;5116519;27;20093;-59
2022/05/03 00:14:11;;;;;;;7.55;6.75;;;16.50;68.00;;;;;;5136451;27;20046;-57
2022/05/03 00:16:38;;;;;;;11.40;6.57;;;16.40;68.00;;;;;;5136424;27;20023;-57
2022/05/03 00:19:05;;;;;;;7.90;6.85;;;16.40;67.90;;;;;;5116226;27;20023;-54
2022/05/03 00:21:35;;;;;;;7.97;7.18;;;16.40;67.90;;;;;;5136066;27;20181;-54
2022/05/03 00:24:04;;;;;;;11.32;7.20;;;16.40;68.10;;;;;;5117883;27;20019;-58
2022/05/03 00:26:31;;;;;;;13.23;7.60;;;16.40;68.30;;;;;;5135156;27;20073;-56
2022/05/03 00:28:58;;;;;;;8.18;6.60;;;16.30;68.40;;;;;;5135432;27;20029;-57
2022/05/03 00:31:27;;;;;;;9.75;7.13;;;16.40;68.50;;;;;;5134544;27;20616;-55
2022/05/03 00:33:55;;;;;;;7.03;6.32;;;16.30;68.70;;;;;;5135533;27;20104;-59
2022/05/03 00:36:22;;;;;;;8.05;6.93;;;16.30;68.80;;;;;;5116639;27;20047;-57
2022/05/03 00:38:48;;;;;;;7.40;6.28;;;16.20;69.00;;;;;;5135365;27;20024;-57
2022/05/03 00:41:38;;;;;;;9.77;7.53;;;16.20;69.30;;;;;;5135211;27;20027;-56
2022/05/03 00:47:16;;;;;;;9.82;7.00;;;16.10;69.60;;;;;;5122094;27;20434;-56
2022/05/03 00:50:02;;;;;;;9.63;7.40;;;16.10;69.60;;;;;;5135149;27;20125;-57
2022/05/03 00:53:00;;;;;;;7.63;6.65;;;16.00;69.80;;;;;;5133999;27;20092;-58
2022/05/03 00:55:52;;;;;;;9.85;6.43;;;16.00;69.90;;;;;;5129309;27;20039;-58
2022/05/03 00:58:24;;;;;;;7.90;6.60;;;15.90;70.00;;;;;;5133519;27;20020;-55
2022/05/03 01:01:05;;;;;;;7.53;6.03;;;15.90;69.80;;;;;;5135144;27;20038;-52
2022/05/03 01:04:10;;;;;;;10.80;6.25;;;15.90;69.90;;;;;;5118541;27;20031;-56
2022/05/03 01:06:49;;;;;;;7.47;6.57;;;15.90;70.00;;;;;;5104817;27;20502;-57
2022/05/03 01:12:20;;;;;;;7.97;6.75;;;15.80;69.90;;;;;;5134337;27;20027;-54
2022/05/03 01:15:04;;;;;;;7.82;6.82;;;15.80;69.90;;;;;;5134395;27;20026;-56
2022/05/03 01:17:46;;;;;;;8.68;6.95;;;15.70;70.00;;;;;;5133443;27;20020;-54
2022/05/03 01:20:38;;;;;;;9.10;7.13;;;15.70;70.20;;;;;;5134368;27;20106;-58
2022/05/03 01:23:30;;;;;;;8.55;7.13;;;15.70;70.20;;;;;;5115571;27;20461;-61
2022/05/03 01:26:21;;;;;;;9.30;6.85;;;15.60;70.30;;;;;;5134658;27;20111;-55
2022/05/03 01:29:17;;;;;;;8.02;6.85;;;15.60;70.50;;;;;;5122455;27;20107;-55
2022/05/03 01:31:43;;;;;;;9.23;6.90;;;15.60;70.40;;;;;;5134110;27;20062;-60
2022/05/03 01:34:12;;;;;;;7.85;6.47;;;15.50;70.30;;;;;;5133617;27;20051;-64
2022/05/03 01:36:56;;;;;;;7.90;6.32;;;15.50;70.50;;;;;;5134026;27;20026;-56
2022/05/03 01:39:38;;;;;;;7.43;5.93;;;15.40;70.80;;;;;;5133209;27;20011;-55
2022/05/03 01:42:20;;;;;;;8.45;6.80;;;15.40;70.70;;;;;;5133782;27;20379;-56
2022/05/03 01:45:03;;;;;;;9.52;7.13;;;15.40;71.00;;;;;;5134031;27;20514;-56
2022/05/03 01:47:43;;;;;;;7.95;6.72;;;15.30;71.00;;;;;;5133645;27;20144;-56
2022/05/03 01:50:24;;;;;;;7.80;6.40;;;15.30;70.80;;;;;;5133309;27;20019;-62
2022/05/03 01:53:27;;;;;;;10.00;7.13;;;15.30;70.70;;;;;;5134009;27;20137;-52
2022/05/03 01:56:22;;;;;;;6.88;6.18;;;15.30;70.80;;;;;;5134451;27;20023;-52
2022/05/03 01:59:36;;;;;;;12.50;6.18;;;15.20;70.50;;;;;;5132982;27;20057;-54
2022/05/03 02:02:24;;;;;;;6.80;6.10;;;15.10;70.50;;;;;;5110684;27;20043;-56
2022/05/03 02:05:03;;;;;;;7.55;6.70;;;15.10;70.60;;;;;;5133810;27;20023;-56
2022/05/03 02:07:52;;;;;;;7.95;6.15;;;15.10;70.40;;;;;;5133470;27;20094;-53
2022/05/03 02:10:39;;;;;;;8.15;7.10;;;15.00;70.30;;;;;;5131968;27;20023;-51
2022/05/03 02:17:04;;;;;;;9.70;6.53;;;15.00;70.30;;;;;;5132843;27;20334;-55
2022/05/03 02:19:51;;;;;;;7.57;6.25;;;15.00;70.20;;;;;;5084703;27;20058;-57
2022/05/03 02:22:50;;;;;;;7.03;6.10;;;14.90;70.20;;;;;;5132980;27;20064;-56
2022/05/03 02:25:52;;;;;;;7.38;5.85;;;14.90;70.50;;;;;;5132689;27;20038;-53
2022/05/03 02:28:37;;;;;;;9.25;6.05;;;14.90;70.40;;;;;;5132779;27;20019;-57
2022/05/03 02:31:04;;;;;;;7.07;5.97;;;14.80;70.80;;;;;;5133437;27;20051;-51
2022/05/03 02:33:38;;;;;;;8.15;5.97;;;14.80;70.20;;;;;;5132702;27;20506;-57
2022/05/03 02:36:12;;;;;;;6.07;5.47;;;14.80;70.40;;;;;;5132896;27;20065;-56
2022/05/03 02:38:48;;;;;;;7.85;6.10;;;14.80;70.40;;;;;;5133325;27;20031;-57
2022/05/03 02:41:17;;;;;;;12.75;6.18;;;14.70;70.40;;;;;;5132435;27;20414;-61
2022/05/03 02:43:46;;;;;;;6.57;5.97;;;14.70;70.40;;;;;;5132240;27;20096;-53
2022/05/03 02:46:37;;;;;;;7.82;5.80;;;14.60;70.40;;;;;;5132523;27;20027;-59
2022/05/03 02:49:07;;;;;;;6.07;5.47;;;14.60;70.60;;;;;;5132915;27;20034;-54
2022/05/03 02:52:08;;;;;;;8.57;5.90;;;14.60;70.50;;;;;;5114226;27;20083;-55
2022/05/03 02:54:37;;;;;;;8.05;5.97;;;14.50;70.80;;;;;;5132642;27;20554;-55
2022/05/03 02:57:30;;;;;;;7.82;5.60;;;14.50;70.80;;;;;;5114953;27;20034;-53
2022/05/03 03:03:25;;;;;;;7.80;5.80;;;14.40;71.20;;;;;;5132598;27;20034;-54
2022/05/03 03:05:59;;;;;;;9.38;6.03;;;14.40;71.20;;;;;;5133102;27;20034;-51
2022/05/03 03:08:28;;;;;;;11.82;7.45;;;14.40;71.10;;;;;;5114139;27;20027;-54
2022/05/03 03:11:04;;;;;;;9.30;5.80;;;14.40;71.00;;;;;;5114030;27;20022;-53
2022/05/03 03:13:38;;;;;;;7.30;6.18;;;14.40;70.90;;;;;;5132492;27;20061;-52
2022/05/03 03:16:11;;;;;;;6.65;5.95;;;14.30;70.90;;;;;;5132862;27;20023;-55
2022/05/03 03:18:39;;;;;;;7.07;5.97;;;14.30;70.80;;;;;;5132531;27;20030;-54
2022/05/03 03:21:06;;;;;;;6.10;5.43;;;14.30;70.90;;;;;;5132045;27;20503;-51
2022/05/03 03:23:35;;;;;;;7.47;5.80;;;14.30;70.80;;;;;;5132074;27;20016;-53
2022/05/03 03:26:01;;;;;;;6.55;5.78;;;14.30;70.60;;;;;;5132635;27;20494;-54
2022/05/03 03:28:29;;;;;;;7.45;5.88;;;14.40;70.70;;;;;;5131628;27;20486;-54
2022/05/03 03:30:58;;;;;;;6.93;6.20;;;14.40;70.60;;;;;;5132006;27;20030;-54
2022/05/03 03:33:31;;;;;;;7.50;6.30;;;14.40;70.60;;;;;;5131939;27;20024;-54
2022/05/03 03:35:58;;;;;;;9.03;6.07;;;14.30;70.60;;;;;;5132576;27;20532;-55
2022/05/03 03:38:36;;;;;;;7.80;5.88;;;14.30;70.70;;;;;;5131769;27;20394;-52
2022/05/03 03:41:02;;;;;;;7.90;6.43;;;14.20;70.80;;;;;;5132490;27;20115;-52
2022/05/03 03:43:28;;;;;;;13.32;6.78;;;14.20;70.80;;;;;;5131287;28;20078;-53
2022/05/03 03:45:55;;;;;;;11.95;7.53;;;14.20;70.80;;;;;;5132476;28;20039;-55
2022/05/03 03:48:21;;;;;;;12.10;7.53;;;14.20;71.00;;;;;;5113560;28;20024;-54
2022/05/03 03:50:47;;;;;;;10.73;6.93;;;14.10;70.90;;;;;;5131681;28;20476;-52
2022/05/03 03:53:15;;;;;;;9.00;6.65;;;14.20;70.90;;;;;;5132479;28;20034;-54
2022/05/03 03:55:42;;;;;;;11.32;6.45;;;14.20;71.60;;;;;;5131039;27;20118;-53
2022/05/03 03:58:08;;;;;;;8.63;6.95;;;14.10;70.90;;;;;;5114157;28;20507;-56
2022/05/03 04:00:34;;;;;;;12.00;6.40;;;14.10;70.80;;;;;;5131103;28;20019;-54
2022/05/03 04:03:01;;;;;;;9.82;5.95;;;14.20;70.80;;;;;;5132143;28;20091;-55
2022/05/03 04:05:28;;;;;;;9.05;6.45;;;14.20;70.80;;;;;;5112085;28;20015;-57
2022/05/03 04:07:54;;;;;;;9.55;6.13;;;14.20;70.80;;;;;;5112982;28;20076;-52
2022/05/03 04:10:20;;;;;;;8.30;6.00;;;14.20;71.10;;;;;;5130510;28;20105;-60
2022/05/03 04:12:46;;;;;;;8.20;5.93;;;14.20;70.70;;;;;;5130240;28;20106;-54
2022/05/03 04:15:12;;;;;;;7.22;6.50;;;14.20;70.60;;;;;;5112415;28;20023;-55
2022/05/03 04:17:38;;;;;;;7.38;5.97;;;14.30;70.50;;;;;;5112098;28;20015;-55
2022/05/03 04:20:04;;;;;;;9.65;6.70;;;14.30;70.40;;;;;;5131165;27;20488;-53
2022/05/03 04:22:34;;;;;;;11.45;6.07;;;14.40;70.30;;;;;;5112022;28;20492;-53
2022/05/03 04:25:01;;;;;;;14.93;11.25;;;14.30;70.20;;;;;;5130889;28;20029;-54
2022/05/03 04:27:28;;;;;;;8.13;6.57;;;14.30;70.10;;;;;;5112232;28;20054;-54
2022/05/03 04:29:55;;;;;;;10.55;6.32;;;14.40;70.10;;;;;;5131047;27;20019;-54
2022/05/03 04:32:20;;;;;;;11.13;6.32;;;14.40;70.00;;;;;;5129762;27;20039;-59
2022/05/03 04:34:47;;;;;;;7.55;6.32;;;14.50;69.90;;;;;;5133592;27;20122;-58
2022/05/03 04:37:13;;;;;;;9.23;6.68;;;14.50;69.80;;;;;;5134542;27;20049;-52
2022/05/03 04:39:39;;;;;;;16.10;10.50;;;14.50;69.70;;;;;;5133186;27;20019;-54
2022/05/03 04:42:06;;;;;;;10.77;6.93;;;14.60;69.60;;;;;;5133064;27;20023;-53
2022/05/03 04:44:31;;;;;;;12.57;6.85;;;14.60;69.50;;;;;;5133409;27;20394;-54
2022/05/03 04:46:57;;;;;;;12.68;6.90;;;14.70;69.30;;;;;;5133707;27;20023;-54
2022/05/03 04:49:23;;;;;;;7.95;6.65;;;14.70;69.20;;;;;;5134780;27;20079;-60
2022/05/03 04:51:50;;;;;;;8.15;6.82;;;14.70;69.20;;;;;;5134316;27;20498;-53
2022/05/03 04:54:15;;;;;;;9.98;7.05;;;14.80;69.10;;;;;;5134230;27;20030;-54
2022/05/03 04:56:50;;;;;;;12.20;7.65;;;14.90;68.90;;;;;;5132843;27;20203;-54
2022/05/03 04:59:16;;;;;;;11.20;7.25;;;15.00;68.60;;;;;;5134276;27;20023;-52
2022/05/03 05:01:41;;;;;;;11.25;7.18;;;15.10;68.50;;;;;;5133809;27;20154;-55
2022/05/03 05:04:07;;;;;;;10.93;7.80;;;15.20;68.20;;;;;;5134775;27;20022;-53
2022/05/03 05:06:33;;;;;;;13.23;8.00;;;15.30;67.80;;;;;;5132332;27;20415;-54
2022/05/03 05:09:01;;;;;;;8.88;7.90;;;15.40;67.70;;;;;;5133069;27;20025;-54
2022/05/03 05:11:27;;;;;;;12.48;7.65;;;15.40;67.40;;;;;;5131687;27;20022;-60
2022/05/03 05:13:53;;;;;;;16.15;8.55;;;15.50;67.50;;;;;;5114786;27;20019;-56
2022/05/03 05:16:19;;;;;;;13.68;8.45;;;15.50;67.50;;;;;;5133237;27;20119;-58
2022/05/03 05:18:44;;;;;;;10.40;8.45;;;15.60;67.40;;;;;;5133301;27;20023;-56
2022/05/03 05:21:12;;;;;;;12.73;9.00;;;15.60;67.30;;;;;;5131309;27;20054;-56
2022/05/03 05:23:37;;;;;;;16.35;9.77;;;15.70;67.30;;;;;;5113961;27;20019;-55
2022/05/03 05:26:03;;;;;;;16.30;10.38;;;15.80;67.30;;;;;;5114665;27;20053;-54
2022/05/03 05:28:29;;;;;;;16.20;9.93;;;15.90;67.40;;;;;;5132943;27;20024;-55
2022/05/03 05:30:55;;;;;;;17.95;10.95;;;16.00;67.20;;;;;;5113764;27;20053;-52
2022/05/03 05:33:22;;;;;;;15.02;10.75;;;16.10;67.00;;;;;;5131391;27;20463;-54
2022/05/03 05:35:49;;;;;;;15.68;10.35;;;16.20;66.90;;;;;;5115168;27;20076;-56
2022/05/03 05:38:16;;;;;;;12.90;10.35;;;16.30;66.90;;;;;;5115334;27;20030;-56
2022/05/03 05:40:43;;;;;;;12.10;10.38;;;16.30;66.70;;;;;;5115044;27;20015;-53
2022/05/03 05:43:09;;;;;;;15.07;11.52;;;16.40;66.60;;;;;;5133390;27;20047;-51
2022/05/03 05:45:35;;;;;;;17.25;12.13;;;16.50;66.40;;;;;;5131487;27;20474;-56
2022/05/03 05:48:00;;;;;;;13.50;10.68;;;16.60;66.20;;;;;;5132950;27;20019;-56
2022/05/03 05:50:27;;;;;;;15.05;11.30;;;16.70;65.80;;;;;;5114290;27;20110;-57
2022/05/03 05:55:36;;;;;;;17.08;10.43;;;16.80;65.00;;;;;;5133213;27;20104;-54
2022/05/03 05:58:05;;;;;;;14.52;10.93;;;16.90;64.80;;;;;;5133428;27;20055;-54
2022/05/03 06:00:32;;;;;;;21.92;11.60;;;17.10;64.60;;;;;;5113966;27;20027;-52
2022/05/03 06:03:01;;;;;;;19.75;11.23;;;17.20;64.00;;;;;;5133403;27;20015;-54
2022/05/03 06:05:27;;;;;;;31.40;12.35;;;17.40;63.50;;;;;;5133020;27;20095;-58
2022/05/03 06:07:53;;;;;;;21.30;11.00;;;17.50;63.00;;;;;;5133364;27;20021;-54
2022/05/03 06:10:20;;;;;;;40.95;13.52;;;17.60;62.70;;;;;;5132809;27;20019;-53
2022/05/03 06:12:47;;;;;;;18.38;11.00;;;17.80;62.10;;;;;;5113775;27;20058;-59
2022/05/03 06:15:12;;;;;;;15.38;11.20;;;17.90;61.40;;;;;;5132189;27;20034;-55
2022/05/03 06:17:40;;;;;;;22.65;13.15;;;18.10;60.80;;;;;;5133049;27;20028;-55
2022/05/03 06:20:07;;;;;;;22.35;11.30;;;18.20;60.10;;;;;;5113488;27;20076;-54
2022/05/03 06:22:33;;;;;;;19.50;12.02;;;18.30;59.80;;;;;;5132397;27;20098;-60
2022/05/03 06:24:59;;;;;;;21.02;11.18;;;18.40;59.30;;;;;;5114977;27;20019;-54
2022/05/03 06:27:25;;;;;;;19.33;12.30;;;18.40;59.30;;;;;;5132580;27;20035;-57
2022/05/03 06:29:50;;;;;;;19.23;11.50;;;18.40;59.30;;;;;;5132200;27;20050;-53
2022/05/03 06:32:16;;;;;;;26.50;11.27;;;18.50;59.10;;;;;;5114182;27;20029;-52
2022/05/03 06:34:42;;;;;;;17.63;10.85;;;18.50;58.80;;;;;;5114096;27;20023;-53
2022/05/03 06:37:08;;;;;;;21.52;11.82;;;18.60;58.20;;;;;;5114791;27;20072;-56
2022/05/03 06:39:36;;;;;;;18.52;10.88;;;18.60;57.90;;;;;;5132742;27;20484;-53
2022/05/03 06:42:06;;;;;;;16.10;10.85;;;18.60;57.50;;;;;;5132993;27;20038;-55
2022/05/03 06:44:33;;;;;;;22.88;10.77;;;18.60;57.30;;;;;;5113460;27;20109;-59
2022/05/03 06:46:59;;;;;;;14.63;10.77;;;18.60;56.70;;;;;;5113632;27;20459;-57
2022/05/03 06:49:24;;;;;;;16.17;11.35;;;18.70;56.70;;;;;;5113688;27;20024;-54
2022/05/03 06:51:51;;;;;;;16.33;10.60;;;18.80;56.10;;;;;;5132215;27;20046;-55
2022/05/03 06:54:16;;;;;;;16.98;11.02;;;18.90;55.70;;;;;;5131990;27;20027;-50
2022/05/03 06:56:42;;;;;;;18.20;11.30;;;19.00;55.40;;;;;;5112210;27;20019;-55
2022/05/03 06:59:08;;;;;;;14.52;11.77;;;19.20;55.00;;;;;;5129222;27;20238;-56
2022/05/03 07:01:37;;;;;;;17.85;10.68;;;19.50;54.70;;;;;;5114787;27;20050;-56
2022/05/03 07:04:03;;;;;;;15.38;9.95;;;20.50;53.70;;;;;;5114383;27;20019;-58
2022/05/03 07:06:29;;;;;;;14.68;10.65;;;22.40;51.40;;;;;;5113230;27;20105;-55
2022/05/03 07:08:55;;;;;;;15.07;10.35;;;24.90;47.00;;;;;;5113581;27;20019;-54
2022/05/03 07:11:20;;;;;;;16.20;9.88;;;27.60;41.40;;;;;;5132601;27;20034;-54
2022/05/03 07:13:48;;;;;;;15.38;8.73;;;29.90;38.10;;;;;;5113437;27;20023;-55
2022/05/03 07:16:14;;;;;;;12.35;8.75;;;31.80;35.10;;;;;;5113637;27;20076;-57
2022/05/03 07:24:08;;;;;;;20.52;9.20;;;36.60;29.30;;;;;;5132162;27;20523;-56
2022/05/03 07:26:34;;;;;;;18.00;8.50;;;38.10;28.00;;;;;;5131221;27;20027;-60
2022/05/03 07:29:00;;;;;;;15.35;9.52;;;39.20;27.30;;;;;;5113517;27;20023;-59
2022/05/03 07:31:26;;;;;;;9.98;8.52;;;40.30;26.50;;;;;;5112931;27;20031;-53
2022/05/03 07:33:51;;;;;;;8.77;7.85;;;41.40;25.70;;;;;;5130813;27;20019;-54
2022/05/03 07:36:20;;;;;;;9.27;8.30;;;42.10;25.10;;;;;;5113159;27;20443;-58
2022/05/03 07:38:46;;;;;;;14.93;8.68;;;42.60;24.60;;;;;;5131070;27;20110;-56
2022/05/03 07:41:13;;;;;;;12.43;8.93;;;43.20;24.20;;;;;;5112932;27;20102;-57
2022/05/03 07:43:39;;;;;;;11.30;7.72;;;43.50;23.60;;;;;;5130092;27;20043;-56
2022/05/03 07:46:05;;;;;;;13.60;7.40;;;44.00;23.50;;;;;;5113478;28;20023;-55
2022/05/03 07:48:31;;;;;;;19.75;9.23;;;44.50;23.20;;;;;;5131608;28;20027;-57
2022/05/03 07:50:56;;;;;;;13.40;9.00;;;44.60;23.00;;;;;;5131201;27;20375;-55
2022/05/03 07:53:22;;;;;;;17.02;8.52;;;45.30;23.10;;;;;;5131914;28;20027;-59
2022/05/03 07:55:48;;;;;;;11.75;7.63;;;45.70;22.60;;;;;;5131393;28;20075;-59
2022/05/03 07:58:15;;;;;;;10.95;7.50;;;45.40;22.00;;;;;;5131332;27;20023;-56
2022/05/03 08:00:41;;;;;;;12.43;7.18;;;45.30;22.40;;;;;;5130788;27;20038;-60
2022/05/03 08:03:07;;;;;;;10.07;7.60;;;45.00;22.20;;;;;;5112716;28;20031;-60
2022/05/03 08:05:33;;;;;;;10.20;8.13;;;45.60;22.40;;;;;;5112995;28;20019;-61
2022/05/03 08:07:59;;;;;;;14.18;8.50;;;46.60;22.20;;;;;;5128538;27;20020;-62
2022/05/03 08:10:25;;;;;;;15.43;8.35;;;47.10;21.90;;;;;;5135236;27;20384;-59
2022/05/03 08:12:51;;;;;;;12.82;7.72;;;47.30;21.30;;;;;;5135834;27;20422;-62
2022/05/03 08:15:18;;;;;;;14.80;7.95;;;47.10;21.50;;;;;;5116510;27;20104;-62
2022/05/03 08:17:44;;;;;;;12.40;7.18;;;48.10;21.20;;;;;;5114732;27;20031;-67
2022/05/03 08:20:10;;;;;;;11.00;6.95;;;48.50;20.70;;;;;;5116521;27;20099;-64
2022/05/03 08:22:36;;;;;;;15.02;6.50;;;49.10;20.80;;;;;;5135478;27;20126;-66
2022/05/03 08:25:02;;;;;;;9.35;6.78;;;49.60;20.80;;;;;;5115025;27;20520;-61
2022/05/03 08:27:29;;;;;;;9.10;6.70;;;50.20;20.70;;;;;;5116008;27;20029;-63
2022/05/03 08:29:54;;;;;;;9.95;7.10;;;50.80;20.50;;;;;;5133859;27;20099;-62
2022/05/03 08:32:20;;;;;;;19.90;6.70;;;51.40;20.20;;;;;;5134089;27;20539;-62
2022/05/03 08:34:46;;;;;;;9.50;5.47;;;51.30;19.60;;;;;;5133890;27;20027;-62
2022/05/03 08:42:40;;;;;;;8.85;3.88;;;51.20;18.90;;;;;;5134119;27;20058;-62
2022/05/03 08:45:06;;;;;;;6.90;4.30;;;50.10;19.10;;;;;;5116441;27;20435;-59
2022/05/03 08:47:32;;;;;;;6.70;4.20;;;48.90;19.20;;;;;;5134547;27;20032;-64
2022/05/03 08:50:06;;;;;;;7.35;4.65;;;47.90;19.50;;;;;;5133617;27;20022;-64
2022/05/03 08:52:43;;;;;;;6.15;4.18;;;47.80;20.10;;;;;;5114197;27;20035;-63
2022/05/03 08:55:11;;;;;;;8.30;5.05;;;47.90;19.40;;;;;;5134028;27;20469;-61
2022/05/03 08:57:38;;;;;;;5.28;4.13;;;47.60;19.60;;;;;;5132528;27;20085;-64
2022/05/03 09:00:07;;;;;;;15.90;3.92;;;47.50;19.70;;;;;;5133314;27;20101;-60
2022/05/03 09:02:33;;;;;;;7.10;3.45;;;46.60;19.40;;;;;;5134652;27;20027;-61
2022/05/03 09:05:00;;;;;;;4.88;3.00;;;44.90;19.60;;;;;;5115345;27;20065;-60
2022/05/03 09:07:26;;;;;;;7.88;3.10;;;42.30;20.40;;;;;;5134167;27;20016;-62
2022/05/03 09:09:54;;;;;;;8.32;3.47;;;39.80;21.30;;;;;;5132714;27;20030;-59
2022/05/03 09:12:31;;;;;;;6.75;3.05;;;37.60;22.20;;;;;;5116002;27;20039;-60
2022/05/03 09:14:59;;;;;;;6.43;3.55;;;35.30;22.90;;;;;;5114949;27;20019;-60
2022/05/03 09:17:42;;;;;;;7.05;3.47;;;33.70;24.00;;;;;;5134196;27;20027;-58
2022/05/03 09:26:33;;;;;;;6.18;3.17;;;30.40;25.80;;;;;;5134171;27;20091;-60
2022/05/03 09:29:14;;;;;;;5.60;2.80;;;29.70;26.00;;;;;;5133339;27;20026;-58
2022/05/03 09:31:43;;;;;;;5.88;2.95;;;29.20;26.40;;;;;;5133195;27;20126;-63
2022/05/03 09:34:18;;;;;;;6.15;3.95;;;28.50;27.10;;;;;;5133660;27;20102;-59
2022/05/03 09:36:48;;;;;;;7.25;3.40;;;28.00;28.00;;;;;;5133291;27;20055;-56
2022/05/03 09:39:24;;;;;;;6.88;2.92;;;27.60;28.20;;;;;;5133039;27;20016;-59
2022/05/03 09:42:24;;;;;;;8.57;2.50;;;27.40;28.40;;;;;;5132548;27;20023;-59
2022/05/03 09:44:50;;;;;;;4.72;2.58;;;27.10;28.20;;;;;;5092395;28;20115;-58
2022/05/03 09:47:16;;;;;;;7.53;3.83;;;26.80;28.30;;;;;;5091834;28;20538;-58
2022/05/03 09:49:43;;;;;;;4.35;2.75;;;26.70;28.80;;;;;;5090583;28;20538;-61
2022/05/03 09:52:27;;;;;;;6.03;2.60;;;26.70;29.20;;;;;;5092117;28;20095;-59
2022/05/03 09:54:59;;;;;;;4.22;2.50;;;26.60;29.00;;;;;;5091676;28;20020;-61
2022/05/03 09:57:27;;;;;;;7.22;3.20;;;26.20;28.80;;;;;;5091647;28;20155;-59
2022/05/03 09:59:55;;;;;;;4.53;2.15;;;25.80;28.80;;;;;;5091425;28;20024;-62
2022/05/03 10:02:23;;;;;;;5.00;2.47;;;25.70;28.60;;;;;;5090531;28;20119;-56
2022/05/03 10:04:51;;;;;;;8.57;4.05;;;25.70;28.90;;;;;;5090864;28;20103;-60
2022/05/03 10:07:19;;;;;;;5.50;2.55;;;25.70;29.20;;;;;;5090141;28;20032;-59
2022/05/03 10:09:46;;;;;;;12.43;4.65;;;25.70;29.70;;;;;;5091225;28;20043;-59
2022/05/03 10:12:13;;;;;;;10.57;3.78;;;25.50;30.00;;;;;;5091866;28;20036;-57
2022/05/03 10:14:40;;;;;;;6.18;2.30;;;25.50;29.90;;;;;;5086424;28;20381;-60
2022/05/03 10:23:02;;;;;;;6.68;2.88;;;25.50;29.60;;;;;;5066616;28;20028;-59
2022/05/03 10:25:49;;;;;;;6.65;3.65;;;25.60;29.50;;;;;;5088854;28;20046;-63
2022/05/03 10:28:15;;;;;;;8.20;2.10;;;25.30;29.60;;;;;;5088762;28;20055;-60
2022/05/03 10:31:07;;;;;;;6.78;2.42;;;25.30;29.40;;;;;;5088559;28;20024;-66
2022/05/03 10:33:32;;;;;;;7.43;2.55;;;25.20;29.50;;;;;;5090969;28;20476;-61
2022/05/03 10:36:01;;;;;;;3.90;2.58;;;25.30;29.40;;;;;;5088959;28;20086;-60
2022/05/03 10:38:46;;;;;;;3.75;2.45;;;25.30;29.50;;;;;;5090211;28;20550;-60
2022/05/03 10:41:23;;;;;;;3.25;2.30;;;25.50;29.50;;;;;;5091273;28;20036;-57
2022/05/03 10:43:49;;;;;;;4.85;2.40;;;25.30;28.90;;;;;;5088573;28;20185;-58
2022/05/03 10:46:20;;;;;;;4.13;2.10;;;25.20;29.00;;;;;;5090810;28;20103;-59
2022/05/03 10:49:11;;;;;;;8.15;2.55;;;25.10;28.80;;;;;;5090380;28;20358;-65
2022/05/03 10:51:37;;;;;;;5.32;2.20;;;25.10;29.60;;;;;;5091578;28;20355;-56
2022/05/03 10:54:04;;;;;;;5.20;2.45;;;25.20;29.50;;;;;;5090308;28;20245;-57
2022/05/03 10:56:30;;;;;;;2.97;2.35;;;25.20;29.30;;;;;;5089601;28;20028;-59
2022/05/03 10:59:05;;;;;;;5.88;2.10;;;25.20;29.50;;;;;;5088437;28;20166;-60
2022/05/03 11:01:33;;;;;;;3.85;2.35;;;25.20;28.60;;;;;;5090958;28;20016;-61
2022/05/03 11:03:58;;;;;;;5.47;2.65;;;25.00;28.50;;;;;;5089723;28;20101;-58
2022/05/03 11:06:27;;;;;;;6.55;2.50;;;25.00;28.90;;;;;;5090881;28;20020;-58
2022/05/03 11:09:09;;;;;;;4.50;2.20;;;25.00;29.10;;;;;;5090173;28;20016;-60
2022/05/03 11:11:44;;;;;;;7.30;2.63;;;25.20;29.20;;;;;;5091170;28;20050;-56
2022/05/03 11:14:17;;;;;;;4.10;2.30;;;25.20;29.50;;;;;;5089394;28;20036;-59
2022/05/03 11:16:51;;;;;;;7.15;2.22;;;25.30;29.30;;;;;;5088952;28;20024;-60
2022/05/03 11:19:22;;;;;;;10.27;2.90;;;25.20;29.40;;;;;;5090958;28;20028;-61
2022/05/03 11:21:51;;;;;;;5.65;2.40;;;25.30;29.40;;;;;;5088661;28;20032;-63
2022/05/03 11:24:24;;;;;;;5.88;2.20;;;25.40;29.20;;;;;;5090319;28;20016;-62
2022/05/03 11:26:52;;;;;;;11.43;2.90;;;25.50;28.60;;;;;;5088570;28;20254;-57
2022/05/03 11:29:18;;;;;;;4.72;2.30;;;25.50;28.80;;;;;;5090328;28;20354;-59
2022/05/03 11:31:49;;;;;;;6.95;2.85;;;25.60;29.10;;;;;;5090329;28;20035;-60
2022/05/03 11:34:15;;;;;;;3.53;2.22;;;25.60;29.10;;;;;;5090240;28;20069;-61
2022/05/03 11:36:42;;;;;;;3.17;2.05;;;25.70;28.80;;;;;;5090961;28;20416;-59
2022/05/03 11:39:09;;;;;;;4.72;2.20;;;25.60;28.90;;;;;;5090479;28;20111;-58
2022/05/03 11:41:37;;;;;;;7.65;1.90;;;25.60;28.90;;;;;;5089185;28;20077;-57
2022/05/03 11:44:03;;;;;;;5.18;2.00;;;25.50;28.70;;;;;;5109683;28;20514;-58
2022/05/03 11:46:29;;;;;;;5.45;2.10;;;25.40;28.80;;;;;;5112854;28;20375;-59
2022/05/03 11:49:02;;;;;;;6.63;1.98;;;25.30;28.80;;;;;;5131126;27;20102;-56
2022/05/03 11:57:11;;;;;;;4.63;2.30;;;25.60;29.10;;;;;;5129984;28;20103;-59
2022/05/03 11:59:40;;;;;;;5.47;2.15;;;25.70;29.10;;;;;;5130708;27;20035;-58
2022/05/03 12:02:21;;;;;;;5.15;2.38;;;25.80;29.00;;;;;;5129982;28;20114;-57
2022/05/03 12:05:12;;;;;;;4.55;1.90;;;25.90;28.80;;;;;;5130172;28;20064;-55
2022/05/03 12:07:53;;;;;;;6.45;2.10;;;25.90;29.00;;;;;;5131407;28;20019;-59
2022/05/03 12:10:20;;;;;;;4.38;2.00;;;25.90;28.90;;;;;;5131261;27;20042;-56
2022/05/03 12:12:48;;;;;;;9.13;2.33;;;25.90;29.00;;;;;;5131046;27;20034;-59
2022/05/03 12:15:28;;;;;;;6.35;2.55;;;25.90;29.10;;;;;;5130104;27;20023;-56
2022/05/03 12:18:11;;;;;;;8.00;4.07;;;26.10;29.00;;;;;;5112331;28;20051;-57
2022/05/03 12:20:47;;;;;;;5.75;2.40;;;26.30;28.90;;;;;;5130817;28;20024;-57
2022/05/03 12:23:17;;;;;;;7.35;2.60;;;26.20;29.00;;;;;;5130091;28;20023;-58
2022/05/03 12:25:46;;;;;;;6.65;2.45;;;26.00;29.30;;;;;;5126291;28;20472;-51
2022/05/03 12:28:12;;;;;;;10.75;2.80;;;25.90;29.50;;;;;;5131037;27;20019;-57
2022/05/03 12:30:38;;;;;;;4.85;2.70;;;25.60;30.90;;;;;;5111323;28;20125;-57
2022/05/03 12:33:06;;;;;;;10.15;3.00;;;25.60;31.70;;;;;;5111350;28;20019;-53
2022/05/03 12:35:35;;;;;;;14.00;2.80;;;25.60;32.10;;;;;;5130312;28;20078;-55
2022/05/03 12:38:11;;;;;;;6.70;3.03;;;25.50;32.10;;;;;;5111572;28;20055;-55
2022/05/03 12:40:47;;;;;;;5.32;2.75;;;25.60;32.00;;;;;;5129664;27;20114;-56
2022/05/03 12:43:17;;;;;;;5.65;2.50;;;25.60;32.00;;;;;;5129664;27;20065;-55
2022/05/03 12:45:56;;;;;;;5.88;2.58;;;25.60;31.90;;;;;;5130742;28;20049;-58
2022/05/03 12:48:22;;;;;;;9.02;2.95;;;25.50;31.90;;;;;;5112140;28;20045;-55
2022/05/03 12:50:49;;;;;;;6.63;3.05;;;25.50;31.90;;;;;;5130715;28;20054;-54
2022/05/03 12:53:15;;;;;;;4.78;2.72;;;25.50;31.60;;;;;;5111645;28;20115;-57
2022/05/03 12:55:41;;;;;;;6.60;2.80;;;25.50;31.10;;;;;;5134001;27;20039;-54
2022/05/03 12:58:22;;;;;;;7.25;2.90;;;25.40;32.10;;;;;;5114135;27;20470;-61
2022/05/03 13:01:00;;;;;;;6.88;2.65;;;25.10;33.20;;;;;;5133365;27;20428;-57
2022/05/03 13:03:26;;;;;;;10.40;2.80;;;24.90;34.80;;;;;;5134548;27;20173;-58
2022/05/03 13:05:51;;;;;;;10.43;2.67;;;24.60;35.00;;;;;;5133342;27;20102;-57
2022/05/03 13:08:18;;;;;;;5.95;2.72;;;24.40;35.30;;;;;;5132933;27;20023;-50
2022/05/03 13:10:44;;;;;;;5.40;2.63;;;24.40;35.40;;;;;;5133883;27;20098;-54
2022/05/03 13:13:10;;;;;;;6.50;3.03;;;24.40;35.40;;;;;;5131863;27;20023;-55
2022/05/03 13:15:37;;;;;;;6.25;3.40;;;24.30;35.30;;;;;;5133913;27;20475;-55
2022/05/03 13:18:03;;;;;;;9.27;3.13;;;24.20;35.40;;;;;;5131927;27;20024;-55
2022/05/03 13:20:48;;;;;;;3.85;2.35;;;24.30;35.20;;;;;;5115444;27;20028;-53
2022/05/03 13:23:14;;;;;;;9.07;3.78;;;24.30;35.10;;;;;;5114034;27;20140;-57
2022/05/03 13:25:40;;;;;;;6.88;2.30;;;24.20;33.90;;;;;;5133704;27;20374;-55
2022/05/03 13:28:06;;;;;;;4.57;2.80;;;24.30;33.50;;;;;;5132992;27;20042;-53
2022/05/03 13:30:33;;;;;;;5.47;2.40;;;24.30;33.70;;;;;;5133493;27;20406;-57
2022/05/03 13:32:59;;;;;;;8.88;3.13;;;24.30;33.90;;;;;;5132484;27;20050;-54
2022/05/03 13:40:57;;;;;;;3.35;2.30;;;24.40;34.10;;;;;;5133602;27;20471;-59
2022/05/03 13:43:23;;;;;;;6.93;2.60;;;24.30;33.90;;;;;;5132944;27;20050;-55
2022/05/03 13:45:49;;;;;;;7.78;2.17;;;24.30;34.40;;;;;;5133537;27;20016;-54
2022/05/03 13:48:16;;;;;;;3.33;2.08;;;24.30;33.90;;;;;;5132770;27;20177;-53
2022/05/03 13:50:42;;;;;;;5.03;2.55;;;24.30;33.20;;;;;;5132980;27;20026;-54
2022/05/03 13:53:09;;;;;;;5.10;2.90;;;24.40;33.00;;;;;;5113677;27;20034;-54